.
WxDataArchive / Data Records for 2014-11-22
2014-11-21 November 2014 2014-11-23

Data Records for Saturday, 22 November 2014

Time	Temp	Chill	HIndex	Humid	Dewpt	 Wind 	HiWind	WindDir	Rain 	Barom
-----	----	-----	------	-----	-----	------	------	-------	-----	-----
00:00	18.8	18.8	18.8	67	9.7	0	0	---	0.00	30.341 
00:05	18.8	18.8	18.8	67	9.7	0	0	---	0.00	30.341 
00:10	18.9	18.9	18.9	68	10.1	0	1	90	0.00	30.341 
00:15	19.1	19.1	19.1	68	10.3	0	1	90	0.00	30.326 
00:20	19.4	19.4	19.4	68	10.6	0	1	90	0.00	30.326 
00:25	19.9	19.9	19.9	68	11.1	0	0	---	0.00	30.326 
00:30	20.3	20.3	20.3	68	11.5	0	1	90	0.00	30.326 
00:35	20.6	20.6	20.6	68	11.7	0	0	---	0.00	30.326 
00:40	21.0	21.0	21.0	68	12.1	0	0	---	0.00	30.326 
00:45	21.3	21.3	21.3	68	12.4	0	1	90	0.00	30.324 
00:50	21.4	21.4	21.4	67	12.2	0	0	---	0.00	30.324 
00:55	21.8	21.8	21.8	66	12.2	0	0	---	0.00	30.324 
01:00	22.2	22.2	22.2	65	12.3	0	2	90	0.00	30.309 
01:05	22.5	22.5	22.5	65	12.5	0	1	90	0.00	30.309 
01:10	23.0	23.0	23.0	65	13.0	0	1	90	0.00	30.309 
01:15	23.3	23.3	23.3	65	13.3	0	2	90	0.00	30.305 
01:20	23.8	23.8	23.8	64	13.4	0	1	90	0.00	30.305 
01:25	24.1	24.1	24.1	63	13.4	0	1	90	0.00	30.305 
01:30	24.4	24.4	24.4	64	14.0	0	1	90	0.00	30.295 
01:35	24.5	24.5	24.5	63	13.7	0	2	90	0.00	30.295 
01:40	24.7	24.7	24.7	63	13.9	0	1	90	0.00	30.295 
01:45	24.8	24.8	24.8	63	14.0	0	1	90	0.00	30.288 
01:50	25.0	25.0	25.0	63	14.2	0	1	90	0.00	30.288 
01:55	25.3	25.3	25.3	63	14.5	0	1	90	0.00	30.288 
02:00	25.4	25.4	25.4	63	14.6	0	3	90	0.00	30.275 
02:05	25.7	25.7	25.7	63	14.9	0	1	90	0.00	30.275 
02:10	26.0	26.0	26.0	63	15.2	0	1	90	0.00	30.275 
02:15	26.3	26.3	26.3	63	15.4	0	0	---	0.00	30.273 
02:20	26.4	26.4	26.4	64	15.9	0	1	90	0.00	30.273 
02:25	26.7	26.7	26.7	63	15.8	0	1	90	0.00	30.273 
02:30	26.9	26.9	26.9	63	16.0	0	1	90	0.00	30.270 
02:35	27.2	27.2	27.2	62	15.9	0	1	90	0.00	30.270 
02:40	27.5	27.5	27.5	61	15.8	0	2	90	0.00	30.270 
02:45	27.8	27.8	27.8	61	16.1	0	2	90	0.00	30.258 
02:50	28.1	28.1	28.1	62	16.8	0	1	90	0.00	30.258 
02:55	28.4	28.4	28.4	62	17.1	0	2	90	0.00	30.258 
03:00	28.7	28.7	28.7	62	17.4	0	1	90	0.00	30.253 
03:05	29.1	29.1	29.1	60	17.0	0	1	90	0.00	30.253 
03:10	29.4	29.4	29.4	61	17.6	0	1	90	0.00	30.253 
03:15	29.7	29.7	29.7	61	17.9	0	2	90	0.00	30.248 
03:20	30.0	30.0	30.0	60	17.8	0	3	90	0.00	30.248 
03:25	30.3	30.3	30.3	60	18.1	0	3	90	0.00	30.248 
03:30	30.6	30.6	30.6	59	18.0	0	1	90	0.00	30.240 
03:35	30.7	30.7	30.7	59	18.1	0	2	90	0.00	30.240 
03:40	30.9	30.9	30.9	59	18.3	0	3	90	0.00	30.240 
03:45	31.0	31.0	31.0	60	18.8	0	1	90	0.00	30.223 
03:50	31.3	31.3	31.3	58	18.3	0	3	90	0.00	30.223 
03:55	31.5	31.5	31.5	59	18.8	0	1	90	0.00	30.223 
04:00	31.6	31.6	31.6	58	18.5	0	1	90	0.00	30.217 
04:05	31.8	31.8	31.8	58	18.7	0	2	90	0.00	30.217 
04:10	31.9	31.9	31.9	58	18.8	0	2	90	0.00	30.217 
04:15	32.1	32.1	32.1	60	19.8	0	2	90	0.00	30.218 
04:20	32.1	32.1	32.1	65	21.7	0	1	90	0.00	30.218 
04:25	32.1	32.1	32.1	68	22.7	0	3	90	0.00	30.218 
04:30	31.9	31.9	31.9	70	23.2	0	3	90	0.00	30.215 
04:35	31.8	31.8	31.8	73	24.1	0	3	90	0.00	30.215 
04:40	31.8	31.8	31.8	75	24.8	0	2	90	0.00	30.215 
04:45	31.9	31.9	31.9	77	25.5	0	3	90	0.00	30.205 
04:50	31.9	31.9	31.9	78	25.8	0	2	90	0.00	30.205 
04:55	31.9	31.9	31.9	79	26.1	0	3	90	0.00	30.205 
05:00	32.1	32.1	32.1	81	26.9	0	2	90	0.00	30.202 
05:05	32.2	32.2	32.2	82	27.3	0	2	90	0.00	30.202 
05:10	32.2	32.2	32.2	83	27.6	0	2	90	0.00	30.202 
05:15	32.2	32.2	32.2	84	27.9	0	2	90	0.00	30.194 
05:20	32.2	32.2	32.2	85	28.2	0	1	90	0.00	30.194 
05:25	32.4	32.4	32.4	85	28.4	0	2	90	0.00	30.194 
05:30	32.4	32.4	32.4	86	28.7	0	2	90	0.00	30.188 
05:35	32.5	32.5	32.5	87	29.1	0	1	90	0.00	30.188 
05:40	32.5	32.5	32.5	87	29.1	0	1	90	0.00	30.188 
05:45	32.7	32.7	32.7	88	29.5	0	4	90	0.00	30.183 
05:50	32.7	32.7	32.7	88	29.5	0	1	270	0.00	30.183 
05:55	32.8	32.8	32.8	89	29.9	0	2	270	0.00	30.183 
06:00	32.8	32.8	32.8	89	29.9	0	2	270	0.00	30.178 
06:05	32.9	32.9	32.9	89	30.0	0	2	270	0.00	30.178 
06:10	33.1	33.1	33.1	90	30.5	0	1	315	0.00	30.178 
06:15	33.1	33.1	33.1	90	30.5	0	1	315	0.00	30.182 
06:20	33.2	33.2	33.2	90	30.6	0	1	315	0.00	30.182 
06:25	33.2	33.2	33.2	90	30.6	0	1	315	0.00	30.182 
06:30	33.4	33.4	33.4	90	30.8	0	1	315	0.00	30.173 
06:35	33.4	33.4	33.4	91	31.1	0	1	315	0.00	30.173 
06:40	33.4	33.4	33.4	91	31.1	0	1	315	0.00	30.173 
06:45	33.5	33.5	33.5	91	31.2	0	1	315	0.00	30.170 
06:50	33.5	33.5	33.5	91	31.2	0	1	315	0.00	30.170 
06:55	33.7	33.7	33.7	91	31.4	0	1	315	0.00	30.170 
07:00	33.8	33.8	33.8	92	31.7	0	1	315	0.00	30.164 
07:05	33.8	33.8	33.8	92	31.7	0	1	315	0.00	30.164 
07:10	34.0	34.0	34.0	92	31.9	0	0	---	0.00	30.164 
07:15	34.0	34.0	34.0	92	31.9	0	1	315	0.00	30.158 
07:20	34.1	34.1	34.1	92	32.0	0	1	315	0.00	30.158 
07:25	34.3	34.3	34.3	92	32.2	0	1	315	0.00	30.158 
07:30	34.4	34.4	34.4	92	32.3	0	1	315	0.00	30.156 
07:35	34.6	34.6	34.6	92	32.5	0	0	---	0.00	30.156 
07:40	34.7	34.7	34.7	92	32.6	0	1	315	0.00	30.156 
07:45	34.9	34.9	34.9	92	32.8	0	1	315	0.00	30.150 
07:50	35.0	35.0	35.0	92	32.9	0	0	---	0.00	30.150 
07:55	35.2	35.2	35.2	92	33.1	0	2	315	0.00	30.150 
08:00	35.3	35.3	35.3	93	33.5	0	1	315	0.00	30.145 
08:05	35.5	35.5	35.5	93	33.7	0	1	315	0.00	30.145 
08:10	35.8	35.8	35.8	93	34.0	0	2	315	0.00	30.145 
08:15	36.0	36.0	36.0	93	34.2	0	1	315	0.00	30.144 
08:20	36.2	36.2	36.2	93	34.4	0	1	315	0.00	30.144 
08:25	36.3	36.3	36.3	93	34.5	0	1	315	0.00	30.144 
08:30	36.5	36.5	36.5	93	34.7	0	1	315	0.00	30.141 
08:35	36.6	36.6	36.6	93	34.8	0	1	315	0.00	30.141 
08:40	36.6	36.6	36.6	93	34.8	0	0	---	0.00	30.141 
08:45	36.8	36.8	36.8	93	35.0	0	1	315	0.00	30.141 
08:50	36.8	36.8	36.8	93	35.0	0	1	315	0.00	30.141 
08:55	36.9	36.9	36.9	93	35.1	0	2	315	0.00	30.141 
09:00	37.0	37.0	37.0	93	35.2	0	1	315	0.02	30.140 
09:05	37.0	37.0	37.0	92	34.9	0	1	315	0.00	30.140 
09:10	37.2	37.2	37.2	92	35.1	0	1	315	0.00	30.140 
09:15	37.6	37.6	37.6	93	35.8	0	2	315	0.00	30.139 
09:20	38.0	38.0	38.0	93	36.2	0	3	270	0.00	30.139 
09:25	38.3	38.3	38.3	92	36.2	0	4	248	0.00	30.139 
09:30	38.8	38.8	38.8	92	36.7	0	3	248	0.00	30.130 
09:35	39.1	39.1	39.1	92	37.0	0	2	248	0.00	30.130 
09:40	39.5	39.5	39.5	92	37.4	1	4	248	0.00	30.130 
09:45	39.8	39.8	39.8	91	37.4	2	5	248	0.00	30.127 
09:50	40.1	40.1	40.1	90	37.4	1	3	248	0.00	30.127 
09:55	40.5	40.5	40.5	89	37.5	1	4	248	0.00	30.127 
10:00	40.6	40.6	40.6	88	37.3	1	4	248	0.00	30.120 
10:05	40.8	40.8	40.8	87	37.2	0	3	248	0.00	30.120 
10:10	41.1	41.1	41.1	86	37.2	1	5	248	0.01	30.120 
10:15	41.2	41.2	41.2	86	37.3	1	6	248	0.00	30.119 
10:20	41.3	41.3	41.3	85	37.1	1	5	248	0.01	30.119 
10:25	41.5	41.5	41.5	85	37.3	1	5	270	0.00	30.119 
10:30	41.6	41.6	41.6	85	37.4	1	5	248	0.01	30.117 
10:35	41.6	41.6	41.6	85	37.4	1	4	248	0.00	30.117 
10:40	41.5	41.5	41.5	86	37.6	1	3	270	0.01	30.117 
10:45	41.5	41.5	41.5	87	37.9	1	5	248	0.00	30.109 
10:50	41.5	41.5	41.5	87	37.9	1	5	248	0.01	30.109 
10:55	41.6	41.6	41.6	87	38.0	0	3	248	0.00	30.109 
11:00	42.1	42.1	42.1	87	38.5	1	3	248	0.00	30.103 
11:05	42.5	42.5	42.5	87	38.9	0	3	248	0.00	30.103 
11:10	42.9	42.9	42.9	86	39.0	1	4	248	0.00	30.103 
11:15	43.3	43.3	43.3	85	39.1	1	6	248	0.00	30.100 
11:20	43.5	43.5	43.5	85	39.3	0	2	248	0.00	30.100 
11:25	43.6	43.6	43.6	84	39.1	1	5	270	0.00	30.100 
11:30	43.8	43.8	43.8	84	39.3	1	4	270	0.00	30.090 
11:35	43.9	43.9	43.9	83	39.1	1	5	248	0.00	30.090 
11:40	44.1	44.1	44.1	83	39.3	1	4	248	0.00	30.090 
11:45	44.3	44.3	44.3	83	39.5	1	5	248	0.00	30.083 
11:50	44.6	44.6	44.6	82	39.4	1	6	270	0.00	30.083 
11:55	44.8	44.8	44.8	82	39.6	1	4	248	0.00	30.083 
12:00	44.9	44.9	44.9	82	39.7	1	5	248	0.00	30.073 
12:05	45.1	45.1	45.1	81	39.6	1	6	270	0.00	30.073 
12:10	45.2	45.2	45.2	81	39.7	1	5	248	0.00	30.073 
12:15	45.4	45.4	45.4	81	39.9	1	5	248	0.00	30.063 
12:20	45.5	45.5	45.5	81	40.0	1	4	270	0.00	30.063 
12:25	45.5	45.5	45.5	82	40.3	1	4	248	0.00	30.063 
12:30	45.7	45.7	45.7	82	40.5	1	3	248	0.00	30.050 
12:35	45.7	45.7	45.7	83	40.8	1	4	248	0.00	30.050 
12:40	45.8	45.8	45.8	83	40.9	1	6	248	0.00	30.050 
12:45	46.0	46.0	46.0	82	40.8	1	3	248	0.00	30.049 
12:50	46.1	46.1	46.1	82	40.9	1	3	248	0.00	30.049 
12:55	46.2	46.2	46.2	82	41.0	0	3	248	0.00	30.049 
13:00	46.4	46.4	46.4	82	41.2	1	5	248	0.00	30.038 
13:05	46.7	46.7	46.7	81	41.2	0	4	270	0.00	30.038 
13:10	47.0	47.0	47.0	81	41.5	1	4	248	0.00	30.038 
13:15	47.3	47.3	47.3	80	41.4	1	11	248	0.00	30.026 
13:20	47.6	47.6	47.6	80	41.7	0	4	248	0.00	30.026 
13:25	47.7	47.7	47.7	79	41.5	1	3	248	0.00	30.026 
13:30	47.7	47.7	47.7	79	41.5	1	5	248	0.00	30.025 
13:35	47.9	47.9	47.9	79	41.7	1	6	248	0.00	30.025 
13:40	47.9	47.9	47.9	78	41.4	2	6	248	0.00	30.025 
13:45	48.0	48.0	48.0	78	41.5	1	4	270	0.00	30.016 
13:50	48.0	48.0	48.0	78	41.5	2	5	248	0.00	30.016 
13:55	48.2	48.2	48.2	79	42.0	1	5	248	0.00	30.016 
14:00	48.2	48.2	48.2	78	41.7	2	7	248	0.00	30.014 
14:05	48.2	48.2	48.2	78	41.7	1	4	248	0.00	30.014 
14:10	48.0	48.0	48.0	79	41.8	1	5	248	0.00	30.014 
14:15	48.0	48.0	48.0	80	42.1	1	6	225	0.00	30.002 
14:20	48.2	48.2	48.2	80	42.3	1	6	248	0.00	30.002 
14:25	48.5	48.5	48.5	80	42.6	1	5	248	0.00	30.002 
14:30	48.6	48.6	48.6	80	42.7	2	6	270	0.00	29.996 
14:35	48.9	48.9	48.9	80	43.0	1	5	248	0.00	29.996 
14:40	49.1	49.1	49.1	80	43.2	1	4	248	0.00	29.996 
14:45	49.2	49.2	49.2	80	43.3	1	8	248	0.00	29.991 
14:50	49.4	49.4	49.4	80	43.5	1	5	248	0.00	29.991 
14:55	49.4	49.4	49.4	80	43.5	1	6	248	0.00	29.991 
15:00	49.5	49.5	49.5	80	43.6	2	7	248	0.00	29.980 
15:05	49.5	49.5	49.5	80	43.6	1	4	248	0.01	29.980 
15:10	49.4	49.4	49.4	81	43.8	1	6	248	0.00	29.980 
15:15	49.5	49.5	49.5	81	43.9	1	3	248	0.00	29.973 
15:20	49.6	49.6	49.6	80	43.7	1	5	248	0.00	29.973 
15:25	49.8	49.8	49.8	79	43.6	1	4	90	0.00	29.973 
15:30	49.8	49.8	49.8	79	43.6	1	4	270	0.00	29.972 
15:35	49.9	49.9	49.9	78	43.3	1	5	270	0.00	29.972 
15:40	49.9	49.9	49.9	78	43.3	1	3	270	0.00	29.972 
15:45	50.1	50.1	50.1	77	43.2	2	9	248	0.00	29.974 
15:50	50.1	50.1	50.1	77	43.2	1	3	248	0.00	29.974 
15:55	50.1	50.1	50.1	77	43.2	1	4	248	0.00	29.974 
16:00	50.1	50.1	50.1	77	43.2	1	5	248	0.00	29.974 
16:05	50.2	50.2	50.2	77	43.3	1	4	248	0.00	29.974 
16:10	50.2	50.2	50.2	77	43.3	1	4	248	0.00	29.974 
16:15	50.4	50.4	50.4	76	43.1	1	4	225	0.00	29.971 
16:20	50.4	50.4	50.4	76	43.1	1	5	248	0.00	29.971 
16:25	50.4	50.4	50.4	76	43.1	1	4	270	0.00	29.971 
16:30	50.4	50.4	50.4	76	43.1	1	4	248	0.00	29.961 
16:35	50.4	50.4	50.4	76	43.1	1	4	248	0.00	29.961 
16:40	50.2	50.2	50.2	76	42.9	0	4	248	0.00	29.961 
16:45	50.2	50.2	50.2	76	42.9	1	4	270	0.00	29.967 
16:50	50.1	50.1	50.1	76	42.8	1	2	270	0.00	29.967 
16:55	50.1	50.1	50.1	77	43.2	1	4	270	0.00	29.967 
17:00	50.1	50.1	50.1	77	43.2	0	4	338	0.00	29.966 
17:05	50.1	50.1	50.1	77	43.2	1	5	270	0.00	29.966 
17:10	50.4	50.4	50.4	77	43.5	1	5	248	0.00	29.966 
17:15	50.5	50.5	50.5	76	43.2	0	5	248	0.00	29.967 
17:20	50.7	50.7	50.7	76	43.4	1	6	248	0.00	29.967 
17:25	50.8	50.8	50.8	75	43.2	1	3	248	0.00	29.967 
17:30	51.0	51.0	51.0	75	43.4	1	7	248	0.00	29.959 
17:35	51.0	51.0	51.0	75	43.4	1	4	270	0.00	29.959 
17:40	51.0	51.0	51.0	74	43.0	1	4	248	0.00	29.959 
17:45	51.0	51.0	51.0	74	43.0	1	3	248	0.00	29.960 
17:50	51.0	51.0	51.0	74	43.0	1	6	248	0.00	29.960 
17:55	51.0	51.0	51.0	74	43.0	1	6	248	0.00	29.960 
18:00	51.0	51.0	51.0	74	43.0	1	6	248	0.00	29.967 
18:05	51.0	51.0	51.0	74	43.0	1	4	248	0.00	29.967 
18:10	51.0	51.0	51.0	74	43.0	1	3	248	0.00	29.967 
18:15	51.0	51.0	51.0	74	43.0	0	2	248	0.00	29.966 
18:20	51.0	51.0	51.0	74	43.0	1	6	248	0.00	29.966 
18:25	51.1	51.1	51.1	73	42.7	1	6	248	0.00	29.966 
18:30	51.1	51.1	51.1	73	42.7	1	3	248	0.00	29.966 
18:35	51.1	51.1	51.1	73	42.7	1	4	248	0.00	29.966 
18:40	51.1	51.1	51.1	73	42.7	1	4	248	0.00	29.966 
18:45	51.1	51.1	51.1	73	42.7	0	6	270	0.00	29.963 
18:50	51.0	51.0	51.0	74	43.0	0	3	22	0.00	29.963 
18:55	50.8	50.8	50.8	74	42.8	0	3	292	0.00	29.963 
19:00	50.7	50.7	50.7	74	42.7	0	4	0	0.00	29.962 
19:05	50.7	50.7	50.7	74	42.7	0	1	248	0.00	29.962 
19:10	50.8	50.8	50.8	74	42.8	1	3	248	0.00	29.962 
19:15	50.8	50.8	50.8	74	42.8	1	4	248	0.00	29.968 
19:20	51.0	51.0	51.0	73	42.7	1	7	315	0.00	29.968 
19:25	51.0	51.0	51.0	73	42.7	0	2	270	0.00	29.968 
19:30	50.8	50.8	50.8	73	42.5	1	3	270	0.00	29.963 
19:35	50.8	50.8	50.8	73	42.5	1	4	270	0.00	29.963 
19:40	50.8	50.8	50.8	73	42.5	1	3	270	0.00	29.963 
19:45	51.0	51.0	51.0	73	42.7	1	5	248	0.00	29.967 
19:50	51.0	51.0	51.0	73	42.7	0	3	248	0.00	29.967 
19:55	51.0	51.0	51.0	73	42.7	1	3	248	0.00	29.967 
20:00	51.1	51.1	51.1	72	42.4	1	4	248	0.00	29.969 
20:05	51.1	51.1	51.1	72	42.4	0	3	248	0.00	29.969 
20:10	51.1	51.1	51.1	72	42.4	0	3	248	0.00	29.969 
20:15	51.1	51.1	51.1	72	42.4	1	4	248	0.00	29.966 
20:20	51.1	51.1	51.1	72	42.4	1	5	270	0.00	29.966 
20:25	51.1	51.1	51.1	72	42.4	0	2	270	0.00	29.966 
20:30	51.1	51.1	51.1	72	42.4	0	3	270	0.00	29.963 
20:35	51.1	51.1	51.1	71	42.0	0	2	270	0.00	29.963 
20:40	51.1	51.1	51.1	71	42.0	1	4	248	0.00	29.963 
20:45	51.3	51.3	51.3	71	42.2	0	3	225	0.00	29.956 
20:50	51.3	51.3	51.3	71	42.2	0	3	248	0.00	29.956 
20:55	51.4	51.4	51.4	70	41.9	0	3	248	0.00	29.956 
21:00	51.4	51.4	51.4	70	41.9	1	4	248	0.00	29.955 
21:05	51.6	51.6	51.6	70	42.1	1	4	248	0.00	29.955 
21:10	51.7	51.7	51.7	69	41.9	0	2	248	0.00	29.955 
21:15	51.7	51.7	51.7	69	41.9	0	3	248	0.00	29.952 
21:20	51.9	51.9	51.9	68	41.7	0	4	248	0.00	29.952 
21:25	52.0	52.0	52.0	68	41.8	0	2	248	0.00	29.952 
21:30	52.0	52.0	52.0	68	41.8	1	3	248	0.00	29.952 
21:35	52.2	52.2	52.2	67	41.6	0	3	248	0.00	29.952 
21:40	52.2	52.2	52.2	67	41.6	0	6	248	0.00	29.952 
21:45	52.2	52.2	52.2	67	41.6	1	4	248	0.00	29.951 
21:50	52.3	52.3	52.3	67	41.7	1	5	248	0.00	29.951 
21:55	52.3	52.3	52.3	67	41.7	0	2	248	0.00	29.951 
22:00	52.3	52.3	52.3	67	41.7	0	2	248	0.00	29.951 
22:05	52.2	52.2	52.2	67	41.6	0	2	248	0.00	29.951 
22:10	52.3	52.3	52.3	67	41.7	0	2	248	0.00	29.951 
22:15	52.3	52.3	52.3	66	41.3	0	3	248	0.00	29.950 
22:20	52.3	52.3	52.3	67	41.7	0	2	248	0.00	29.950 
22:25	52.2	52.2	52.2	67	41.6	0	3	248	0.00	29.950 
22:30	52.2	52.2	52.2	67	41.6	1	4	248	0.00	29.951 
22:35	52.2	52.2	52.2	67	41.6	0	2	248	0.00	29.951 
22:40	52.0	52.0	52.0	67	41.4	0	3	248	0.00	29.951 
22:45	52.0	52.0	52.0	68	41.8	0	2	248	0.00	29.953 
22:50	51.9	51.9	51.9	68	41.7	0	3	248	0.00	29.953 
22:55	51.7	51.7	51.7	68	41.5	0	3	248	0.00	29.953 
23:00	51.7	51.7	51.7	69	41.9	0	2	248	0.00	29.950 
23:05	51.6	51.6	51.6	69	41.8	0	1	248	0.00	29.950 
23:10	51.4	51.4	51.4	69	41.6	0	2	248	0.00	29.950 
23:15	51.3	51.3	51.3	69	41.5	0	1	248	0.00	29.947 
23:20	51.4	51.4	51.4	69	41.6	0	1	248	0.00	29.947 
23:25	51.4	51.4	51.4	69	41.6	0	2	248	0.00	29.947 
23:30	51.4	51.4	51.4	69	41.6	0	2	248	0.00	29.948 
23:35	51.4	51.4	51.4	68	41.2	0	3	248	0.00	29.948 
23:40	51.4	51.4	51.4	68	41.2	0	1	248	0.00	29.948 
23:45	51.4	51.4	51.4	68	41.2	0	3	248	0.00	29.961 
23:50	51.4	51.4	51.4	68	41.2	1	3	248	0.00	29.961 
23:55	51.4	51.4	51.4	70	41.9	1	4	248	0.00	29.961 

CoCoRaHS
IN-AL-39
A2 Web Hosting
Creative Commons License
GoDaddy
search engine by freefind advanced

loaded 2018-11-17 23:13:25 • last modified 2010-11-18 10:43:29
Privacy PolicyDisclaimer
• wx.awcolley.com is powered by PmWiki v.2002016 •
• all content (unless otherwise noted) © 2018 A W Colley